sensor_id;sensor_type;location;lat;lon;timestamp;temperature;humidity
39019;DHT22;24786;51.984;5.872;2023-01-08T00:02:08;10.30;99.90
39019;DHT22;24786;51.984;5.872;2023-01-08T00:04:34;10.30;99.90
39019;DHT22;24786;51.984;5.872;2023-01-08T00:06:59;10.20;99.90
39019;DHT22;24786;51.984;5.872;2023-01-08T00:09:25;10.30;99.90
39019;DHT22;24786;51.984;5.872;2023-01-08T00:11:51;10.30;99.90
39019;DHT22;24786;51.984;5.872;2023-01-08T00:14:16;10.30;99.90
39019;DHT22;24786;51.984;5.872;2023-01-08T00:16:42;10.30;99.90
39019;DHT22;24786;51.984;5.872;2023-01-08T00:19:07;10.30;99.90
39019;DHT22;24786;51.984;5.872;2023-01-08T00:21:33;10.20;99.90
39019;DHT22;24786;51.984;5.872;2023-01-08T00:23:58;10.30;99.90
39019;DHT22;24786;51.984;5.872;2023-01-08T00:26:24;10.30;99.90
39019;DHT22;24786;51.984;5.872;2023-01-08T00:28:50;10.30;99.90
39019;DHT22;24786;51.984;5.872;2023-01-08T00:31:15;10.40;99.90
39019;DHT22;24786;51.984;5.872;2023-01-08T00:33:41;10.30;99.90
39019;DHT22;24786;51.984;5.872;2023-01-08T00:36:12;10.30;99.90
39019;DHT22;24786;51.984;5.872;2023-01-08T00:38:38;10.30;99.90
39019;DHT22;24786;51.984;5.872;2023-01-08T00:41:04;10.40;99.90
39019;DHT22;24786;51.984;5.872;2023-01-08T00:43:30;10.40;99.90
39019;DHT22;24786;51.984;5.872;2023-01-08T00:45:56;10.40;99.90
39019;DHT22;24786;51.984;5.872;2023-01-08T00:48:21;10.40;99.90
39019;DHT22;24786;51.984;5.872;2023-01-08T00:50:48;10.50;99.90
39019;DHT22;24786;51.984;5.872;2023-01-08T00:53:14;10.40;99.90
39019;DHT22;24786;51.984;5.872;2023-01-08T00:55:40;10.40;99.90
39019;DHT22;24786;51.984;5.872;2023-01-08T00:58:06;10.40;99.90
39019;DHT22;24786;51.984;5.872;2023-01-08T01:00:31;10.40;99.90
39019;DHT22;24786;51.984;5.872;2023-01-08T01:02:57;10.50;99.90
39019;DHT22;24786;51.984;5.872;2023-01-08T01:05:22;10.40;99.90
39019;DHT22;24786;51.984;5.872;2023-01-08T01:07:48;10.50;99.90
39019;DHT22;24786;51.984;5.872;2023-01-08T01:10:15;10.50;99.90
39019;DHT22;24786;51.984;5.872;2023-01-08T01:12:41;10.40;99.90
39019;DHT22;24786;51.984;5.872;2023-01-08T01:15:10;10.40;99.90
39019;DHT22;24786;51.984;5.872;2023-01-08T01:17:37;10.50;99.90
39019;DHT22;24786;51.984;5.872;2023-01-08T01:20:05;10.30;99.90
39019;DHT22;24786;51.984;5.872;2023-01-08T01:22:31;10.40;99.90
39019;DHT22;24786;51.984;5.872;2023-01-08T01:24:56;10.40;99.90
39019;DHT22;24786;51.984;5.872;2023-01-08T01:27:23;10.40;99.90
39019;DHT22;24786;51.984;5.872;2023-01-08T01:29:48;10.30;99.90
39019;DHT22;24786;51.984;5.872;2023-01-08T01:32:14;10.50;99.90
39019;DHT22;24786;51.984;5.872;2023-01-08T01:34:40;10.30;99.90
39019;DHT22;24786;51.984;5.872;2023-01-08T01:37:05;10.30;99.90
39019;DHT22;24786;51.984;5.872;2023-01-08T01:39:31;10.30;99.90
39019;DHT22;24786;51.984;5.872;2023-01-08T01:41:57;10.30;99.90
39019;DHT22;24786;51.984;5.872;2023-01-08T01:44:40;10.40;99.90
39019;DHT22;24786;51.984;5.872;2023-01-08T01:47:32;10.30;99.90
39019;DHT22;24786;51.984;5.872;2023-01-08T01:50:08;10.30;99.90
39019;DHT22;24786;51.984;5.872;2023-01-08T01:52:44;10.30;99.90
39019;DHT22;24786;51.984;5.872;2023-01-08T01:55:12;10.30;99.90
39019;DHT22;24786;51.984;5.872;2023-01-08T01:57:38;10.20;99.90
39019;DHT22;24786;51.984;5.872;2023-01-08T02:00:06;10.20;99.90
39019;DHT22;24786;51.984;5.872;2023-01-08T02:02:32;10.20;99.90
39019;DHT22;24786;51.984;5.872;2023-01-08T02:04:59;10.20;99.90
39019;DHT22;24786;51.984;5.872;2023-01-08T02:07:43;10.20;99.90
39019;DHT22;24786;51.984;5.872;2023-01-08T02:10:27;10.30;99.90
39019;DHT22;24786;51.984;5.872;2023-01-08T02:13:09;10.20;99.90
39019;DHT22;24786;51.984;5.872;2023-01-08T02:15:55;10.20;99.90
39019;DHT22;24786;51.984;5.872;2023-01-08T02:18:29;10.20;99.90
39019;DHT22;24786;51.984;5.872;2023-01-08T02:21:02;10.10;99.90
39019;DHT22;24786;51.984;5.872;2023-01-08T02:23:52;10.20;99.90
39019;DHT22;24786;51.984;5.872;2023-01-08T02:29:09;10.20;99.90
39019;DHT22;24786;51.984;5.872;2023-01-08T02:31:39;10.30;99.90
39019;DHT22;24786;51.984;5.872;2023-01-08T02:34:06;10.20;99.90
39019;DHT22;24786;51.984;5.872;2023-01-08T02:36:44;10.20;99.90
39019;DHT22;24786;51.984;5.872;2023-01-08T02:39:27;10.20;99.90
39019;DHT22;24786;51.984;5.872;2023-01-08T02:45:08;10.20;99.90
39019;DHT22;24786;51.984;5.872;2023-01-08T02:47:41;10.30;99.90
39019;DHT22;24786;51.984;5.872;2023-01-08T02:56:00;10.20;99.90
39019;DHT22;24786;51.984;5.872;2023-01-08T02:58:28;10.20;99.90
39019;DHT22;24786;51.984;5.872;2023-01-08T03:00:56;10.20;99.90
39019;DHT22;24786;51.984;5.872;2023-01-08T03:03:27;10.10;99.90
39019;DHT22;24786;51.984;5.872;2023-01-08T03:06:01;10.10;99.90
39019;DHT22;24786;51.984;5.872;2023-01-08T03:08:28;10.00;99.90
39019;DHT22;24786;51.984;5.872;2023-01-08T03:13:39;9.90;99.90
39019;DHT22;24786;51.984;5.872;2023-01-08T03:16:11;9.80;99.90
39019;DHT22;24786;51.984;5.872;2023-01-08T03:18:44;9.80;99.90
39019;DHT22;24786;51.984;5.872;2023-01-08T03:21:12;9.70;99.90
39019;DHT22;24786;51.984;5.872;2023-01-08T03:23:39;9.70;99.90
39019;DHT22;24786;51.984;5.872;2023-01-08T03:26:06;9.60;99.90
39019;DHT22;24786;51.984;5.872;2023-01-08T03:28:43;9.60;99.90
39019;DHT22;24786;51.984;5.872;2023-01-08T03:31:14;9.60;99.90
39019;DHT22;24786;51.984;5.872;2023-01-08T03:33:41;9.60;99.90
39019;DHT22;24786;51.984;5.872;2023-01-08T03:36:11;9.50;99.90
39019;DHT22;24786;51.984;5.872;2023-01-08T03:38:47;9.40;99.90
39019;DHT22;24786;51.984;5.872;2023-01-08T03:41:19;9.40;99.90
39019;DHT22;24786;51.984;5.872;2023-01-08T03:43:47;9.30;99.90
39019;DHT22;24786;51.984;5.872;2023-01-08T03:46:22;9.30;99.90
39019;DHT22;24786;51.984;5.872;2023-01-08T03:48:53;9.20;99.90
39019;DHT22;24786;51.984;5.872;2023-01-08T03:51:19;9.10;99.90
39019;DHT22;24786;51.984;5.872;2023-01-08T03:53:45;9.20;99.90
39019;DHT22;24786;51.984;5.872;2023-01-08T03:56:11;9.10;99.90
39019;DHT22;24786;51.984;5.872;2023-01-08T03:58:37;9.10;99.90
39019;DHT22;24786;51.984;5.872;2023-01-08T04:01:03;9.20;99.90
39019;DHT22;24786;51.984;5.872;2023-01-08T04:03:28;9.00;99.90
39019;DHT22;24786;51.984;5.872;2023-01-08T04:05:54;9.10;99.90
39019;DHT22;24786;51.984;5.872;2023-01-08T04:08:20;9.00;99.90
39019;DHT22;24786;51.984;5.872;2023-01-08T04:10:46;9.10;99.90
39019;DHT22;24786;51.984;5.872;2023-01-08T04:13:11;9.00;99.90
39019;DHT22;24786;51.984;5.872;2023-01-08T04:15:37;9.00;99.90
39019;DHT22;24786;51.984;5.872;2023-01-08T04:18:02;9.00;99.90
39019;DHT22;24786;51.984;5.872;2023-01-08T04:20:28;9.00;99.90
39019;DHT22;24786;51.984;5.872;2023-01-08T04:22:54;9.00;99.90
39019;DHT22;24786;51.984;5.872;2023-01-08T04:25:19;8.90;99.90
39019;DHT22;24786;51.984;5.872;2023-01-08T04:27:45;8.90;99.90
39019;DHT22;24786;51.984;5.872;2023-01-08T04:30:10;8.90;99.90
39019;DHT22;24786;51.984;5.872;2023-01-08T04:32:36;8.90;99.90
39019;DHT22;24786;51.984;5.872;2023-01-08T04:35:02;8.90;99.90
39019;DHT22;24786;51.984;5.872;2023-01-08T04:37:27;8.90;99.90
39019;DHT22;24786;51.984;5.872;2023-01-08T04:39:53;8.80;99.90
39019;DHT22;24786;51.984;5.872;2023-01-08T04:42:18;9.00;99.90
39019;DHT22;24786;51.984;5.872;2023-01-08T04:44:44;8.90;99.90
39019;DHT22;24786;51.984;5.872;2023-01-08T04:47:10;8.80;99.90
39019;DHT22;24786;51.984;5.872;2023-01-08T04:49:35;8.90;99.90
39019;DHT22;24786;51.984;5.872;2023-01-08T04:52:01;8.80;99.90
39019;DHT22;24786;51.984;5.872;2023-01-08T04:54:26;8.90;99.90
39019;DHT22;24786;51.984;5.872;2023-01-08T04:56:52;8.80;99.90
39019;DHT22;24786;51.984;5.872;2023-01-08T04:59:17;9.00;99.90
39019;DHT22;24786;51.984;5.872;2023-01-08T05:01:43;8.90;99.90
39019;DHT22;24786;51.984;5.872;2023-01-08T05:04:10;8.90;99.90
39019;DHT22;24786;51.984;5.872;2023-01-08T05:06:36;8.90;99.90
39019;DHT22;24786;51.984;5.872;2023-01-08T05:09:02;8.90;99.90
39019;DHT22;24786;51.984;5.872;2023-01-08T05:11:28;8.90;99.90
39019;DHT22;24786;51.984;5.872;2023-01-08T05:13:54;8.90;99.90
39019;DHT22;24786;51.984;5.872;2023-01-08T05:16:20;8.90;99.90
39019;DHT22;24786;51.984;5.872;2023-01-08T05:18:46;8.80;99.90
39019;DHT22;24786;51.984;5.872;2023-01-08T05:21:12;8.90;99.90
39019;DHT22;24786;51.984;5.872;2023-01-08T05:23:38;8.80;99.90
39019;DHT22;24786;51.984;5.872;2023-01-08T05:26:05;8.80;99.90
39019;DHT22;24786;51.984;5.872;2023-01-08T05:28:31;8.90;99.90
39019;DHT22;24786;51.984;5.872;2023-01-08T05:30:57;8.90;99.90
39019;DHT22;24786;51.984;5.872;2023-01-08T05:33:24;8.90;99.90
39019;DHT22;24786;51.984;5.872;2023-01-08T05:35:49;8.80;99.90
39019;DHT22;24786;51.984;5.872;2023-01-08T05:38:15;8.80;99.90
39019;DHT22;24786;51.984;5.872;2023-01-08T05:40:41;8.90;99.90
39019;DHT22;24786;51.984;5.872;2023-01-08T05:43:06;8.80;99.90
39019;DHT22;24786;51.984;5.872;2023-01-08T05:45:32;8.80;99.90
39019;DHT22;24786;51.984;5.872;2023-01-08T05:47:58;8.90;99.90
39019;DHT22;24786;51.984;5.872;2023-01-08T05:50:24;8.80;99.90
39019;DHT22;24786;51.984;5.872;2023-01-08T05:52:51;8.90;99.90
39019;DHT22;24786;51.984;5.872;2023-01-08T05:55:17;8.90;99.90
39019;DHT22;24786;51.984;5.872;2023-01-08T05:57:43;9.00;99.90
39019;DHT22;24786;51.984;5.872;2023-01-08T06:00:09;8.80;99.90
39019;DHT22;24786;51.984;5.872;2023-01-08T06:02:35;8.80;99.90
39019;DHT22;24786;51.984;5.872;2023-01-08T06:05:00;8.80;99.90
39019;DHT22;24786;51.984;5.872;2023-01-08T06:07:28;8.80;99.90
39019;DHT22;24786;51.984;5.872;2023-01-08T06:09:53;8.90;99.90
39019;DHT22;24786;51.984;5.872;2023-01-08T06:12:19;8.80;99.90
39019;DHT22;24786;51.984;5.872;2023-01-08T06:14:45;8.80;99.90
39019;DHT22;24786;51.984;5.872;2023-01-08T06:17:10;8.80;99.90
39019;DHT22;24786;51.984;5.872;2023-01-08T06:19:36;8.80;99.90
39019;DHT22;24786;51.984;5.872;2023-01-08T06:22:04;8.80;99.90
39019;DHT22;24786;51.984;5.872;2023-01-08T06:24:29;8.80;99.90
39019;DHT22;24786;51.984;5.872;2023-01-08T06:26:55;8.90;99.90
39019;DHT22;24786;51.984;5.872;2023-01-08T06:29:20;8.70;99.90
39019;DHT22;24786;51.984;5.872;2023-01-08T06:31:46;8.70;99.90
39019;DHT22;24786;51.984;5.872;2023-01-08T06:34:11;8.70;99.90
39019;DHT22;24786;51.984;5.872;2023-01-08T06:36:37;8.70;99.90
39019;DHT22;24786;51.984;5.872;2023-01-08T06:39:05;8.60;99.90
39019;DHT22;24786;51.984;5.872;2023-01-08T06:41:30;8.50;99.90
39019;DHT22;24786;51.984;5.872;2023-01-08T06:43:56;8.60;99.90
39019;DHT22;24786;51.984;5.872;2023-01-08T06:46:22;8.50;99.90
39019;DHT22;24786;51.984;5.872;2023-01-08T06:48:47;8.50;99.90
39019;DHT22;24786;51.984;5.872;2023-01-08T06:51:13;8.40;99.90
39019;DHT22;24786;51.984;5.872;2023-01-08T06:53:38;8.40;99.90
39019;DHT22;24786;51.984;5.872;2023-01-08T06:56:04;8.40;99.90
39019;DHT22;24786;51.984;5.872;2023-01-08T06:58:31;8.30;99.90
39019;DHT22;24786;51.984;5.872;2023-01-08T07:00:57;8.30;99.90
39019;DHT22;24786;51.984;5.872;2023-01-08T07:03:23;8.30;99.90
39019;DHT22;24786;51.984;5.872;2023-01-08T07:05:49;8.10;99.90
39019;DHT22;24786;51.984;5.872;2023-01-08T07:08:16;8.20;99.90
39019;DHT22;24786;51.984;5.872;2023-01-08T07:10:42;8.10;99.90
39019;DHT22;24786;51.984;5.872;2023-01-08T07:13:09;8.10;99.90
39019;DHT22;24786;51.984;5.872;2023-01-08T07:15:35;8.10;99.90
39019;DHT22;24786;51.984;5.872;2023-01-08T07:18:05;8.10;99.90
39019;DHT22;24786;51.984;5.872;2023-01-08T07:20:32;8.10;99.90
39019;DHT22;24786;51.984;5.872;2023-01-08T07:23:03;8.10;99.90
39019;DHT22;24786;51.984;5.872;2023-01-08T07:25:30;8.10;99.90
39019;DHT22;24786;51.984;5.872;2023-01-08T07:27:56;8.00;99.90
39019;DHT22;24786;51.984;5.872;2023-01-08T07:30:22;8.00;99.90
39019;DHT22;24786;51.984;5.872;2023-01-08T07:32:47;8.00;99.90
39019;DHT22;24786;51.984;5.872;2023-01-08T07:35:13;8.00;99.90
39019;DHT22;24786;51.984;5.872;2023-01-08T07:37:39;7.90;99.90
39019;DHT22;24786;51.984;5.872;2023-01-08T07:40:06;7.90;99.90
39019;DHT22;24786;51.984;5.872;2023-01-08T07:42:32;7.90;99.90
39019;DHT22;24786;51.984;5.872;2023-01-08T07:44:57;7.80;99.90
39019;DHT22;24786;51.984;5.872;2023-01-08T07:47:23;7.90;99.90
39019;DHT22;24786;51.984;5.872;2023-01-08T07:49:48;7.80;99.90
39019;DHT22;24786;51.984;5.872;2023-01-08T07:52:14;7.80;99.90
39019;DHT22;24786;51.984;5.872;2023-01-08T07:54:40;7.70;99.90
39019;DHT22;24786;51.984;5.872;2023-01-08T07:57:05;7.70;99.90
39019;DHT22;24786;51.984;5.872;2023-01-08T07:59:31;7.80;99.90
39019;DHT22;24786;51.984;5.872;2023-01-08T08:01:57;7.80;99.90
39019;DHT22;24786;51.984;5.872;2023-01-08T08:04:22;7.80;99.90
39019;DHT22;24786;51.984;5.872;2023-01-08T08:06:49;7.80;99.90
39019;DHT22;24786;51.984;5.872;2023-01-08T08:09:14;7.80;99.90
39019;DHT22;24786;51.984;5.872;2023-01-08T08:11:40;7.80;99.90
39019;DHT22;24786;51.984;5.872;2023-01-08T08:14:06;7.70;99.90
39019;DHT22;24786;51.984;5.872;2023-01-08T08:16:32;7.70;99.90
39019;DHT22;24786;51.984;5.872;2023-01-08T08:18:58;7.80;99.90
39019;DHT22;24786;51.984;5.872;2023-01-08T08:21:24;7.80;99.90
39019;DHT22;24786;51.984;5.872;2023-01-08T08:23:50;7.80;99.90
39019;DHT22;24786;51.984;5.872;2023-01-08T08:26:15;7.80;99.90
39019;DHT22;24786;51.984;5.872;2023-01-08T08:28:41;7.90;99.90
39019;DHT22;24786;51.984;5.872;2023-01-08T08:31:07;7.80;99.90
39019;DHT22;24786;51.984;5.872;2023-01-08T08:33:33;7.80;99.90
39019;DHT22;24786;51.984;5.872;2023-01-08T08:35:58;7.80;99.90
39019;DHT22;24786;51.984;5.872;2023-01-08T08:38:24;7.80;99.90
39019;DHT22;24786;51.984;5.872;2023-01-08T08:40:54;7.90;99.90
39019;DHT22;24786;51.984;5.872;2023-01-08T08:43:20;7.80;99.90
39019;DHT22;24786;51.984;5.872;2023-01-08T08:45:45;7.80;99.90
39019;DHT22;24786;51.984;5.872;2023-01-08T08:48:11;7.80;99.90
39019;DHT22;24786;51.984;5.872;2023-01-08T08:50:37;7.80;99.90
39019;DHT22;24786;51.984;5.872;2023-01-08T08:53:04;7.80;99.90
39019;DHT22;24786;51.984;5.872;2023-01-08T08:55:31;7.90;99.90
39019;DHT22;24786;51.984;5.872;2023-01-08T08:58:23;7.90;99.90
39019;DHT22;24786;51.984;5.872;2023-01-08T09:00:48;7.90;99.90
39019;DHT22;24786;51.984;5.872;2023-01-08T09:03:15;7.90;99.90
39019;DHT22;24786;51.984;5.872;2023-01-08T09:05:41;7.90;99.90
39019;DHT22;24786;51.984;5.872;2023-01-08T09:08:11;7.90;99.90
39019;DHT22;24786;51.984;5.872;2023-01-08T09:10:38;8.00;99.90
39019;DHT22;24786;51.984;5.872;2023-01-08T09:13:04;8.10;99.90
39019;DHT22;24786;51.984;5.872;2023-01-08T09:15:30;8.00;99.90
39019;DHT22;24786;51.984;5.872;2023-01-08T09:17:56;8.00;99.90
39019;DHT22;24786;51.984;5.872;2023-01-08T09:20:23;8.00;99.90
39019;DHT22;24786;51.984;5.872;2023-01-08T09:22:49;8.10;99.90
39019;DHT22;24786;51.984;5.872;2023-01-08T09:25:15;8.10;99.90
39019;DHT22;24786;51.984;5.872;2023-01-08T09:27:41;8.20;99.90
39019;DHT22;24786;51.984;5.872;2023-01-08T09:30:07;8.10;99.90
39019;DHT22;24786;51.984;5.872;2023-01-08T09:32:33;8.20;99.90
39019;DHT22;24786;51.984;5.872;2023-01-08T09:34:58;8.20;99.90
39019;DHT22;24786;51.984;5.872;2023-01-08T09:37:24;8.20;99.90
39019;DHT22;24786;51.984;5.872;2023-01-08T09:39:49;8.10;99.90
39019;DHT22;24786;51.984;5.872;2023-01-08T09:42:20;8.20;99.90
39019;DHT22;24786;51.984;5.872;2023-01-08T09:44:48;8.20;99.90
39019;DHT22;24786;51.984;5.872;2023-01-08T09:47:28;8.20;99.90
39019;DHT22;24786;51.984;5.872;2023-01-08T09:49:59;8.30;99.90
39019;DHT22;24786;51.984;5.872;2023-01-08T09:52:26;8.30;99.90
39019;DHT22;24786;51.984;5.872;2023-01-08T09:54:53;8.30;99.90
39019;DHT22;24786;51.984;5.872;2023-01-08T09:57:20;8.30;99.90
39019;DHT22;24786;51.984;5.872;2023-01-08T09:59:47;8.30;99.90
39019;DHT22;24786;51.984;5.872;2023-01-08T10:02:21;8.30;99.90
39019;DHT22;24786;51.984;5.872;2023-01-08T10:04:56;8.40;99.90
39019;DHT22;24786;51.984;5.872;2023-01-08T10:07:24;8.30;99.90
39019;DHT22;24786;51.984;5.872;2023-01-08T10:09:51;8.30;99.90
39019;DHT22;24786;51.984;5.872;2023-01-08T10:12:25;8.20;99.90
39019;DHT22;24786;51.984;5.872;2023-01-08T10:14:54;8.20;99.90
39019;DHT22;24786;51.984;5.872;2023-01-08T10:17:32;8.30;99.90
39019;DHT22;24786;51.984;5.872;2023-01-08T10:19:58;8.30;99.90
39019;DHT22;24786;51.984;5.872;2023-01-08T10:22:30;8.30;99.90
39019;DHT22;24786;51.984;5.872;2023-01-08T10:25:11;8.30;99.90
39019;DHT22;24786;51.984;5.872;2023-01-08T10:27:48;8.40;99.90
39019;DHT22;24786;51.984;5.872;2023-01-08T10:30:22;8.40;99.90
39019;DHT22;24786;51.984;5.872;2023-01-08T10:32:54;8.50;99.90
39019;DHT22;24786;51.984;5.872;2023-01-08T10:35:28;8.50;99.90
39019;DHT22;24786;51.984;5.872;2023-01-08T10:37:55;8.50;99.90
39019;DHT22;24786;51.984;5.872;2023-01-08T10:40:39;8.60;99.90
39019;DHT22;24786;51.984;5.872;2023-01-08T10:43:14;8.60;99.90
39019;DHT22;24786;51.984;5.872;2023-01-08T10:45:42;8.70;99.90
39019;DHT22;24786;51.984;5.872;2023-01-08T10:48:16;8.70;99.90
39019;DHT22;24786;51.984;5.872;2023-01-08T10:50:41;8.70;99.90
39019;DHT22;24786;51.984;5.872;2023-01-08T10:53:23;8.70;99.90
39019;DHT22;24786;51.984;5.872;2023-01-08T10:55:57;8.80;99.90
39019;DHT22;24786;51.984;5.872;2023-01-08T10:58:23;8.80;99.90
39019;DHT22;24786;51.984;5.872;2023-01-08T11:00:49;8.80;99.90
39019;DHT22;24786;51.984;5.872;2023-01-08T11:03:28;8.80;99.90
39019;DHT22;24786;51.984;5.872;2023-01-08T11:05:55;8.90;99.90
39019;DHT22;24786;51.984;5.872;2023-01-08T11:08:21;8.90;99.90
39019;DHT22;24786;51.984;5.872;2023-01-08T11:10:55;9.00;99.90
39019;DHT22;24786;51.984;5.872;2023-01-08T11:13:22;9.00;99.90
39019;DHT22;24786;51.984;5.872;2023-01-08T11:16:05;9.00;99.90
39019;DHT22;24786;51.984;5.872;2023-01-08T11:18:47;9.00;99.90
39019;DHT22;24786;51.984;5.872;2023-01-08T11:21:23;9.00;99.90
39019;DHT22;24786;51.984;5.872;2023-01-08T11:24:15;9.10;99.90
39019;DHT22;24786;51.984;5.872;2023-01-08T11:29:45;9.20;99.90
39019;DHT22;24786;51.984;5.872;2023-01-08T11:34:49;9.30;99.90
39019;DHT22;24786;51.984;5.872;2023-01-08T11:37:25;9.30;99.90
39019;DHT22;24786;51.984;5.872;2023-01-08T11:39:52;9.30;99.90
39019;DHT22;24786;51.984;5.872;2023-01-08T11:51:07;9.40;99.90
39019;DHT22;24786;51.984;5.872;2023-01-08T11:54:06;9.50;99.90
39019;DHT22;24786;51.984;5.872;2023-01-08T12:03:07;9.60;99.90
39019;DHT22;24786;51.984;5.872;2023-01-08T12:05:49;9.70;99.90
39019;DHT22;24786;51.984;5.872;2023-01-08T12:08:34;9.70;99.90
39019;DHT22;24786;51.984;5.872;2023-01-08T12:14:05;9.80;99.90
39019;DHT22;24786;51.984;5.872;2023-01-08T12:19:26;9.90;99.90
39019;DHT22;24786;51.984;5.872;2023-01-08T12:31:41;10.00;99.90
39019;DHT22;24786;51.984;5.872;2023-01-08T12:33:48;10.00;99.90
39019;DHT22;24786;51.984;5.872;2023-01-08T12:36:29;10.00;99.90
39019;DHT22;24786;51.984;5.872;2023-01-08T12:39:09;10.00;99.90
39019;DHT22;24786;51.984;5.872;2023-01-08T12:41:37;10.10;99.90
39019;DHT22;24786;51.984;5.872;2023-01-08T12:44:05;10.10;99.90
39019;DHT22;24786;51.984;5.872;2023-01-08T12:46:42;10.10;99.90
39019;DHT22;24786;51.984;5.872;2023-01-08T12:49:15;10.20;99.90
39019;DHT22;24786;51.984;5.872;2023-01-08T12:52:01;10.20;99.90
39019;DHT22;24786;51.984;5.872;2023-01-08T13:02:48;10.40;99.90
39019;DHT22;24786;51.984;5.872;2023-01-08T13:05:30;10.50;99.90
39019;DHT22;24786;51.984;5.872;2023-01-08T13:08:04;10.50;99.90
39019;DHT22;24786;51.984;5.872;2023-01-08T13:10:41;10.40;99.90
39019;DHT22;24786;51.984;5.872;2023-01-08T13:13:33;10.40;99.90
39019;DHT22;24786;51.984;5.872;2023-01-08T13:18:30;10.30;99.90
39019;DHT22;24786;51.984;5.872;2023-01-08T13:20:58;10.30;99.90
39019;DHT22;24786;51.984;5.872;2023-01-08T13:23:29;10.30;99.90
39019;DHT22;24786;51.984;5.872;2023-01-08T13:26:00;10.30;99.90
39019;DHT22;24786;51.984;5.872;2023-01-08T13:30:53;10.30;99.90
39019;DHT22;24786;51.984;5.872;2023-01-08T13:38:37;10.30;99.90
39019;DHT22;24786;51.984;5.872;2023-01-08T13:41:03;10.30;99.90
39019;DHT22;24786;51.984;5.872;2023-01-08T13:43:39;10.20;99.90
39019;DHT22;24786;51.984;5.872;2023-01-08T13:46:17;10.30;99.90
39019;DHT22;24786;51.984;5.872;2023-01-08T13:48:59;10.20;99.90
39019;DHT22;24786;51.984;5.872;2023-01-08T13:51:37;10.20;99.90
39019;DHT22;24786;51.984;5.872;2023-01-08T13:54:17;10.20;99.90
39019;DHT22;24786;51.984;5.872;2023-01-08T13:56:45;10.20;99.90
39019;DHT22;24786;51.984;5.872;2023-01-08T13:59:35;10.10;99.90
39019;DHT22;24786;51.984;5.872;2023-01-08T14:02:01;10.10;99.90
39019;DHT22;24786;51.984;5.872;2023-01-08T14:04:26;10.00;99.90
39019;DHT22;24786;51.984;5.872;2023-01-08T14:06:52;10.20;99.90
39019;DHT22;24786;51.984;5.872;2023-01-08T14:09:23;10.00;99.90
39019;DHT22;24786;51.984;5.872;2023-01-08T14:11:52;10.10;99.90
39019;DHT22;24786;51.984;5.872;2023-01-08T14:14:21;10.20;99.90
39019;DHT22;24786;51.984;5.872;2023-01-08T14:16:49;10.10;99.90
39019;DHT22;24786;51.984;5.872;2023-01-08T14:19:23;10.10;99.90
39019;DHT22;24786;51.984;5.872;2023-01-08T14:21:54;10.10;99.90
39019;DHT22;24786;51.984;5.872;2023-01-08T14:24:22;10.20;99.90
39019;DHT22;24786;51.984;5.872;2023-01-08T14:26:56;10.10;99.90
39019;DHT22;24786;51.984;5.872;2023-01-08T14:29:25;10.20;99.90
39019;DHT22;24786;51.984;5.872;2023-01-08T14:31:53;10.10;99.90
39019;DHT22;24786;51.984;5.872;2023-01-08T14:34:24;10.20;99.90
39019;DHT22;24786;51.984;5.872;2023-01-08T14:36:52;10.10;99.90
39019;DHT22;24786;51.984;5.872;2023-01-08T14:39:23;10.00;99.90
39019;DHT22;24786;51.984;5.872;2023-01-08T14:41:51;10.00;99.90
39019;DHT22;24786;51.984;5.872;2023-01-08T14:44:37;10.00;99.90
39019;DHT22;24786;51.984;5.872;2023-01-08T14:47:03;10.10;99.90
39019;DHT22;24786;51.984;5.872;2023-01-08T14:49:32;10.00;99.90
39019;DHT22;24786;51.984;5.872;2023-01-08T14:52:00;10.00;99.90
39019;DHT22;24786;51.984;5.872;2023-01-08T14:54:33;9.90;99.90
39019;DHT22;24786;51.984;5.872;2023-01-08T14:57:00;9.90;99.90
39019;DHT22;24786;51.984;5.872;2023-01-08T14:59:32;9.80;99.90
39019;DHT22;24786;51.984;5.872;2023-01-08T15:02:01;9.80;99.90
39019;DHT22;24786;51.984;5.872;2023-01-08T15:04:28;9.70;99.90
39019;DHT22;24786;51.984;5.872;2023-01-08T15:07:24;9.70;99.90
39019;DHT22;24786;51.984;5.872;2023-01-08T15:09:56;9.60;99.90
39019;DHT22;24786;51.984;5.872;2023-01-08T15:12:25;9.50;99.90
39019;DHT22;24786;51.984;5.872;2023-01-08T15:14:51;9.50;99.90
39019;DHT22;24786;51.984;5.872;2023-01-08T15:17:20;9.50;99.90
39019;DHT22;24786;51.984;5.872;2023-01-08T15:19:52;9.40;99.90
39019;DHT22;24786;51.984;5.872;2023-01-08T15:22:22;9.40;99.90
39019;DHT22;24786;51.984;5.872;2023-01-08T15:25:02;9.30;99.90
39019;DHT22;24786;51.984;5.872;2023-01-08T15:27:30;9.30;99.90
39019;DHT22;24786;51.984;5.872;2023-01-08T15:29:56;9.30;99.90
39019;DHT22;24786;51.984;5.872;2023-01-08T15:32:30;9.20;99.90
39019;DHT22;24786;51.984;5.872;2023-01-08T15:34:57;9.20;99.90
39019;DHT22;24786;51.984;5.872;2023-01-08T15:37:22;9.20;99.90
39019;DHT22;24786;51.984;5.872;2023-01-08T15:39:48;9.10;99.90
39019;DHT22;24786;51.984;5.872;2023-01-08T15:42:20;9.00;99.90
39019;DHT22;24786;51.984;5.872;2023-01-08T15:45:07;9.10;99.90
39019;DHT22;24786;51.984;5.872;2023-01-08T15:47:34;9.00;99.90
39019;DHT22;24786;51.984;5.872;2023-01-08T15:49:59;9.00;99.90
39019;DHT22;24786;51.984;5.872;2023-01-08T15:52:26;8.90;99.90
39019;DHT22;24786;51.984;5.872;2023-01-08T15:54:57;9.00;99.90
39019;DHT22;24786;51.984;5.872;2023-01-08T15:57:23;8.90;99.90
39019;DHT22;24786;51.984;5.872;2023-01-08T15:59:49;8.80;99.90
39019;DHT22;24786;51.984;5.872;2023-01-08T16:02:14;8.80;99.90
39019;DHT22;24786;51.984;5.872;2023-01-08T16:04:41;8.70;99.90
39019;DHT22;24786;51.984;5.872;2023-01-08T16:07:07;8.70;99.90
39019;DHT22;24786;51.984;5.872;2023-01-08T16:09:32;8.60;99.90
39019;DHT22;24786;51.984;5.872;2023-01-08T16:11:58;8.70;99.90
39019;DHT22;24786;51.984;5.872;2023-01-08T16:14:24;8.60;99.90
39019;DHT22;24786;51.984;5.872;2023-01-08T16:16:49;8.60;99.90
39019;DHT22;24786;51.984;5.872;2023-01-08T16:19:15;8.60;99.90
39019;DHT22;24786;51.984;5.872;2023-01-08T16:21:40;8.60;99.90
39019;DHT22;24786;51.984;5.872;2023-01-08T16:24:12;8.50;99.90
39019;DHT22;24786;51.984;5.872;2023-01-08T16:26:38;8.40;99.90
39019;DHT22;24786;51.984;5.872;2023-01-08T16:29:03;8.40;99.90
39019;DHT22;24786;51.984;5.872;2023-01-08T16:31:29;8.40;99.90
39019;DHT22;24786;51.984;5.872;2023-01-08T16:34:05;8.40;99.90
39019;DHT22;24786;51.984;5.872;2023-01-08T16:36:30;8.40;99.90
39019;DHT22;24786;51.984;5.872;2023-01-08T16:38:56;8.40;99.90
39019;DHT22;24786;51.984;5.872;2023-01-08T16:41:22;8.30;99.90
39019;DHT22;24786;51.984;5.872;2023-01-08T16:43:47;8.30;99.90
39019;DHT22;24786;51.984;5.872;2023-01-08T16:46:14;8.30;99.90
39019;DHT22;24786;51.984;5.872;2023-01-08T16:48:43;8.20;99.90
39019;DHT22;24786;51.984;5.872;2023-01-08T16:51:11;8.20;99.90
39019;DHT22;24786;51.984;5.872;2023-01-08T16:53:37;8.30;99.90
39019;DHT22;24786;51.984;5.872;2023-01-08T16:56:03;8.20;99.90
39019;DHT22;24786;51.984;5.872;2023-01-08T16:58:30;8.20;99.90
39019;DHT22;24786;51.984;5.872;2023-01-08T17:00:56;8.20;99.90
39019;DHT22;24786;51.984;5.872;2023-01-08T17:03:23;8.30;99.90